createdAt,value
2023-01-01T00:05:57.376Z,39.19
2023-01-01T00:12:23.683Z,39.2
2023-01-01T00:18:49.400Z,39.24
2023-01-01T00:25:11.641Z,39.14
2023-01-01T00:31:31.353Z,39.18
2023-01-01T00:38:01.212Z,39.15
2023-01-01T00:44:25.234Z,39.13
2023-01-01T00:50:53.910Z,39.06
2023-01-01T00:57:22.784Z,39.16
2023-01-01T01:03:43.480Z,39.25
2023-01-01T01:10:06.740Z,39.1
2023-01-01T01:16:29.872Z,39.04
2023-01-01T01:22:56.316Z,39.14
2023-01-01T01:29:20.747Z,38.85
2023-01-01T01:35:55.720Z,38.92
2023-01-01T01:42:21.449Z,39.13
2023-01-01T01:48:58.367Z,39.07
2023-01-01T01:55:38.044Z,39.04
2023-01-01T02:02:19.030Z,39.1
2023-01-01T02:09:10.814Z,39.04
2023-01-01T02:15:35.718Z,39.22
2023-01-01T02:22:44.512Z,39.07
2023-01-01T02:29:54.473Z,39.2
2023-01-01T02:36:46.421Z,39.13
2023-01-01T02:43:27.697Z,39.16
2023-01-01T02:50:06.035Z,39.24
2023-01-01T02:57:04.577Z,39.12
2023-01-01T03:04:15.433Z,39.25
2023-01-01T03:11:13.964Z,39.21
2023-01-01T03:18:10.790Z,39.19
2023-01-01T03:25:04.543Z,39.12
2023-01-01T03:32:00.425Z,39.08
2023-01-01T03:38:53.482Z,38.99
2023-01-01T03:45:58.874Z,39.17
2023-01-01T03:52:37.769Z,39.16
2023-01-01T03:59:34.938Z,39.23
2023-01-01T04:06:33.528Z,39.2
2023-01-01T04:13:10.317Z,39.13
2023-01-01T04:19:41.469Z,39.1
2023-01-01T04:26:06.052Z,39.11
2023-01-01T04:32:41.902Z,39.15
2023-01-01T04:39:02.336Z,39.07
2023-01-01T04:45:24.668Z,39.14
2023-01-01T04:51:53.025Z,39.21
2023-01-01T04:58:21.391Z,39.3
2023-01-01T05:04:43.299Z,39.15
2023-01-01T05:11:23.402Z,38.73
2023-01-01T05:17:59.425Z,37.26
2023-01-01T05:24:33.785Z,36.68
2023-01-01T05:31:00.477Z,36.78
2023-01-01T05:37:33.428Z,36.87
2023-01-01T05:44:06.144Z,37.01
2023-01-01T05:50:31.745Z,37.19
2023-01-01T05:57:16.490Z,37.29
2023-01-01T06:03:40.977Z,37.38
2023-01-01T06:10:06.510Z,37.57
2023-01-01T06:16:31.882Z,37.82
2023-01-01T06:23:02.632Z,37.87
2023-01-01T06:29:32.597Z,38.02
2023-01-01T06:35:56.584Z,38.2
2023-01-01T06:42:34.346Z,38.2
2023-01-01T06:49:13.513Z,38.4
2023-01-01T06:55:38.917Z,38.46
2023-01-01T07:02:08.025Z,38.23
2023-01-01T07:08:42.525Z,38.41
2023-01-01T07:15:04.495Z,38.47
2023-01-01T07:21:36.573Z,38.53
2023-01-01T07:28:02.456Z,38.55
2023-01-01T07:34:31.573Z,38.56
2023-01-01T07:40:54.994Z,38.46
2023-01-01T07:47:20.583Z,38.45
2023-01-01T07:53:49.107Z,38.61
2023-01-01T08:00:16.936Z,38.4
2023-01-01T08:06:45.596Z,38.49
2023-01-01T08:13:14.542Z,38.49
2023-01-01T08:19:43.709Z,38.55
2023-01-01T08:26:04.802Z,38.6
2023-01-01T08:32:32.685Z,38.54
2023-01-01T08:38:57.592Z,38.6
2023-01-01T08:45:24.652Z,38.56
2023-01-01T08:51:48.191Z,38.45
2023-01-01T08:58:10.395Z,38.61
2023-01-01T09:04:42.737Z,38.59
2023-01-01T09:11:15.774Z,38.57
2023-01-01T09:17:47.591Z,38.5
2023-01-01T09:24:14.660Z,38.54
2023-01-01T09:30:45.702Z,38.48
2023-01-01T09:37:15.859Z,38.62
2023-01-01T09:44:02.755Z,38.53
2023-01-01T09:51:05.772Z,38.54
2023-01-01T09:58:06.657Z,38.66
2023-01-01T10:04:53.847Z,38.66
2023-01-01T10:11:56.987Z,38.64
2023-01-01T10:19:05.098Z,38.56
2023-01-01T10:25:59.777Z,38.52
2023-01-01T10:33:08.823Z,38.56
2023-01-01T10:39:50.502Z,38.52
2023-01-01T10:46:32.901Z,38.65
2023-01-01T10:53:24.888Z,38.53
2023-01-01T11:00:07.715Z,38.54
2023-01-01T11:07:05.447Z,38.58
2023-01-01T11:13:45.129Z,38.59
2023-01-01T11:20:40.098Z,38.6
2023-01-01T11:27:27.723Z,38.58
2023-01-01T11:34:33.272Z,38.55
2023-01-01T11:41:31.874Z,38.56
2023-01-01T11:48:21.838Z,38.52
2023-01-01T11:55:14.779Z,38.61
2023-01-01T12:02:12.050Z,38.59
2023-01-01T12:09:32.907Z,38.6
2023-01-01T12:16:33.125Z,38.7
2023-01-01T12:23:40.064Z,38.65
2023-01-01T12:30:35.586Z,38.69
2023-01-01T12:37:42.317Z,38.6
2023-01-01T12:44:50.827Z,38.65
2023-01-01T12:51:59.799Z,38.71
2023-01-01T12:58:55.926Z,38.77
2023-01-01T13:05:44.887Z,38.63
2023-01-01T13:12:36.054Z,38.68
2023-01-01T13:19:28.258Z,38.72
2023-01-01T13:26:14.481Z,38.78
2023-01-01T13:32:58.447Z,38.72
2023-01-01T13:39:42.069Z,38.8
2023-01-01T13:46:36.997Z,38.66
2023-01-01T13:53:50.298Z,38.54
2023-01-01T14:01:02.244Z,38.24
2023-01-01T14:07:56.294Z,38.43
2023-01-01T14:14:34.871Z,38.56
2023-01-01T14:21:17.210Z,38.49
2023-01-01T14:28:00.318Z,38.16
2023-01-01T14:34:59.890Z,38.39
2023-01-01T14:42:02.664Z,38.31
2023-01-01T14:48:55.751Z,38.41
2023-01-01T14:55:36.002Z,38.64
2023-01-01T15:02:37.363Z,38.49
2023-01-01T15:09:20.384Z,38.43
2023-01-01T15:16:02.408Z,38.5
2023-01-01T15:22:57.931Z,38.53
2023-01-01T15:29:56.122Z,38.47
2023-01-01T15:36:38.109Z,38.5
2023-01-01T15:43:32.259Z,38.56
2023-01-01T15:50:25.023Z,38.52
2023-01-01T15:57:12.027Z,38.48
2023-01-01T16:04:03.356Z,38.49
2023-01-01T16:10:37.930Z,38.54
2023-01-01T16:17:10.850Z,38.58
2023-01-01T16:23:46.443Z,38.55
2023-01-01T16:30:14.003Z,38.49
2023-01-01T16:36:48.005Z,38.63
2023-01-01T16:43:14.216Z,38.64
2023-01-01T16:49:47.521Z,38.46
2023-01-01T16:56:11.990Z,38.54
2023-01-01T17:02:36.808Z,38.56
2023-01-01T17:09:01.924Z,38.56
2023-01-01T17:15:36.313Z,38.54
2023-01-01T17:22:06.279Z,38.51
2023-01-01T17:28:38.516Z,38.49
2023-01-01T17:35:06.102Z,38.35
2023-01-01T17:41:27.471Z,38.37
2023-01-01T17:47:56.068Z,38.31
2023-01-01T17:54:26.083Z,38.38
2023-01-01T18:00:50.526Z,38.46
2023-01-01T18:07:23.459Z,38.23
2023-01-01T18:13:47.894Z,38.13
2023-01-01T18:20:13.103Z,38.3
2023-01-01T18:26:52.127Z,38.18
2023-01-01T18:33:22.126Z,38.23
2023-01-01T18:39:50.331Z,38.41
2023-01-01T18:46:34.256Z,38.4
2023-01-01T18:53:11.503Z,38.23
2023-01-01T18:59:57.520Z,38.2
2023-01-01T19:06:31.527Z,38.32
2023-01-01T19:13:15.041Z,38.39
2023-01-01T19:20:01.749Z,38.27
2023-01-01T19:26:51.540Z,38.47
2023-01-01T19:33:35.088Z,38.45
2023-01-01T19:39:57.214Z,38.47
2023-01-01T19:46:28.000Z,38.49
2023-01-01T19:52:51.111Z,38.56
2023-01-01T19:59:17.261Z,38.54
2023-01-01T20:05:45.615Z,38.49
2023-01-01T20:12:12.295Z,38.55
2023-01-01T20:18:38.037Z,38.51
2023-01-01T20:25:02.099Z,38.46
2023-01-01T20:31:27.503Z,38.49
2023-01-01T20:37:54.465Z,38.6
2023-01-01T20:44:23.207Z,38.58
2023-01-01T20:50:55.450Z,38.53
2023-01-01T20:57:28.347Z,38.36
2023-01-01T21:03:54.638Z,38.53
2023-01-01T21:10:21.502Z,38.32
2023-01-01T21:16:56.539Z,38.48
2023-01-01T21:23:28.472Z,38.52
2023-01-01T21:30:09.178Z,38.58
2023-01-01T21:36:57.264Z,38.44
2023-01-01T21:43:42.816Z,38.55
2023-01-01T21:50:37.034Z,38.55
2023-01-01T21:57:29.349Z,38.53
2023-01-01T22:04:11.181Z,38.6
2023-01-01T22:10:57.586Z,38.61
2023-01-01T22:17:37.485Z,38.61
2023-01-01T22:24:15.052Z,38.58
2023-01-01T22:31:02.884Z,38.61
2023-01-01T22:37:56.554Z,38.73
2023-01-01T22:44:40.125Z,38.57
2023-01-01T22:51:22.519Z,38.74
2023-01-01T22:57:55.529Z,38.83
2023-01-01T23:04:25.270Z,38.62
2023-01-01T23:10:52.061Z,38.77
2023-01-01T23:17:16.269Z,38.53
2023-01-01T23:23:48.765Z,38.6
2023-01-01T23:30:26.798Z,38.65
2023-01-01T23:36:55.597Z,38.7
2023-01-01T23:43:29.389Z,38.75
2023-01-01T23:50:02.081Z,38.75
2023-01-01T23:56:29.485Z,38.83
